sensor_id;sensor_type;location;lat;lon;timestamp;P1;durP1;ratioP1;P2;durP2;ratioP2
21014;SDS011;19207;-23.482;-46.500;2022-12-07T00:00:36;113.10;;;66.15;;
21014;SDS011;19207;-23.482;-46.500;2022-12-07T00:03:22;92.25;;;52.88;;
21014;SDS011;19207;-23.482;-46.500;2022-12-07T00:06:10;100.43;;;55.97;;
21014;SDS011;19207;-23.482;-46.500;2022-12-07T00:08:57;76.07;;;47.72;;
21014;SDS011;19207;-23.482;-46.500;2022-12-07T00:11:43;87.50;;;51.30;;
21014;SDS011;19207;-23.482;-46.500;2022-12-07T00:14:31;113.22;;;64.95;;
21014;SDS011;19207;-23.482;-46.500;2022-12-07T00:17:17;105.97;;;61.15;;
21014;SDS011;19207;-23.482;-46.500;2022-12-07T00:20:04;68.40;;;44.58;;
21014;SDS011;19207;-23.482;-46.500;2022-12-07T00:22:51;79.95;;;47.53;;
21014;SDS011;19207;-23.482;-46.500;2022-12-07T00:25:38;48.03;;;31.25;;
21014;SDS011;19207;-23.482;-46.500;2022-12-07T00:28:24;55.25;;;35.47;;
21014;SDS011;19207;-23.482;-46.500;2022-12-07T00:31:11;50.53;;;32.33;;
21014;SDS011;19207;-23.482;-46.500;2022-12-07T00:33:58;55.28;;;32.72;;
21014;SDS011;19207;-23.482;-46.500;2022-12-07T00:36:45;50.25;;;31.15;;
21014;SDS011;19207;-23.482;-46.500;2022-12-07T00:39:32;45.38;;;27.37;;
21014;SDS011;19207;-23.482;-46.500;2022-12-07T00:42:19;77.37;;;39.20;;
21014;SDS011;19207;-23.482;-46.500;2022-12-07T00:45:06;134.07;;;53.85;;
21014;SDS011;19207;-23.482;-46.500;2022-12-07T00:47:52;116.90;;;49.55;;
21014;SDS011;19207;-23.482;-46.500;2022-12-07T00:50:39;100.65;;;42.67;;
21014;SDS011;19207;-23.482;-46.500;2022-12-07T00:53:26;120.72;;;49.38;;
21014;SDS011;19207;-23.482;-46.500;2022-12-07T00:56:14;119.57;;;46.42;;
21014;SDS011;19207;-23.482;-46.500;2022-12-07T00:59:01;133.45;;;53.92;;
21014;SDS011;19207;-23.482;-46.500;2022-12-07T01:01:48;156.18;;;68.03;;
21014;SDS011;19207;-23.482;-46.500;2022-12-07T01:04:34;156.20;;;62.22;;
21014;SDS011;19207;-23.482;-46.500;2022-12-07T01:07:21;113.45;;;42.17;;
21014;SDS011;19207;-23.482;-46.500;2022-12-07T01:10:07;82.93;;;33.35;;
21014;SDS011;19207;-23.482;-46.500;2022-12-07T01:12:54;84.80;;;32.58;;
21014;SDS011;19207;-23.482;-46.500;2022-12-07T01:15:41;77.85;;;33.20;;
21014;SDS011;19207;-23.482;-46.500;2022-12-07T01:18:28;78.60;;;31.15;;
21014;SDS011;19207;-23.482;-46.500;2022-12-07T01:21:17;70.00;;;28.05;;
21014;SDS011;19207;-23.482;-46.500;2022-12-07T01:24:04;91.25;;;33.92;;
21014;SDS011;19207;-23.482;-46.500;2022-12-07T01:26:51;83.93;;;33.80;;
21014;SDS011;19207;-23.482;-46.500;2022-12-07T01:29:39;78.75;;;34.78;;
21014;SDS011;19207;-23.482;-46.500;2022-12-07T01:32:26;67.50;;;30.73;;
21014;SDS011;19207;-23.482;-46.500;2022-12-07T01:35:13;59.15;;;25.05;;
21014;SDS011;19207;-23.482;-46.500;2022-12-07T01:38:00;55.97;;;26.62;;
21014;SDS011;19207;-23.482;-46.500;2022-12-07T01:40:53;48.58;;;20.83;;
21014;SDS011;19207;-23.482;-46.500;2022-12-07T01:46:46;37.75;;;18.25;;
21014;SDS011;19207;-23.482;-46.500;2022-12-07T01:52:23;31.40;;;16.30;;
21014;SDS011;19207;-23.482;-46.500;2022-12-07T01:55:12;31.35;;;15.38;;
21014;SDS011;19207;-23.482;-46.500;2022-12-07T01:57:59;16.62;;;11.25;;
21014;SDS011;19207;-23.482;-46.500;2022-12-07T02:00:46;22.08;;;12.55;;
21014;SDS011;19207;-23.482;-46.500;2022-12-07T02:03:40;18.92;;;12.57;;
21014;SDS011;19207;-23.482;-46.500;2022-12-07T02:06:26;19.27;;;11.90;;
21014;SDS011;19207;-23.482;-46.500;2022-12-07T02:09:13;15.10;;;11.30;;
21014;SDS011;19207;-23.482;-46.500;2022-12-07T02:12:00;14.87;;;10.38;;
21014;SDS011;19207;-23.482;-46.500;2022-12-07T02:14:48;18.08;;;9.38;;
21014;SDS011;19207;-23.482;-46.500;2022-12-07T02:17:45;15.10;;;9.57;;
21014;SDS011;19207;-23.482;-46.500;2022-12-07T02:20:39;13.88;;;10.25;;
21014;SDS011;19207;-23.482;-46.500;2022-12-07T02:29:35;22.87;;;12.77;;
21014;SDS011;19207;-23.482;-46.500;2022-12-07T02:32:44;18.15;;;11.60;;
21014;SDS011;19207;-23.482;-46.500;2022-12-07T02:35:39;17.62;;;11.55;;
21014;SDS011;19207;-23.482;-46.500;2022-12-07T02:44:07;18.75;;;10.95;;
21014;SDS011;19207;-23.482;-46.500;2022-12-07T02:46:59;22.77;;;12.20;;
21014;SDS011;19207;-23.482;-46.500;2022-12-07T02:49:47;24.58;;;12.52;;
21014;SDS011;19207;-23.482;-46.500;2022-12-07T02:52:35;47.97;;;19.00;;
21014;SDS011;19207;-23.482;-46.500;2022-12-07T02:55:24;38.97;;;20.02;;
21014;SDS011;19207;-23.482;-46.500;2022-12-07T02:58:21;38.45;;;20.27;;
21014;SDS011;19207;-23.482;-46.500;2022-12-07T03:01:45;41.60;;;19.83;;
21014;SDS011;19207;-23.482;-46.500;2022-12-07T03:04:30;42.10;;;20.15;;
21014;SDS011;19207;-23.482;-46.500;2022-12-07T03:10:22;42.47;;;21.67;;
21014;SDS011;19207;-23.482;-46.500;2022-12-07T03:19:15;40.55;;;21.20;;
21014;SDS011;19207;-23.482;-46.500;2022-12-07T03:22:03;37.63;;;20.35;;
21014;SDS011;19207;-23.482;-46.500;2022-12-07T03:24:54;40.78;;;20.48;;
21014;SDS011;19207;-23.482;-46.500;2022-12-07T03:30:36;43.38;;;21.77;;
21014;SDS011;19207;-23.482;-46.500;2022-12-07T03:33:31;39.47;;;20.98;;
21014;SDS011;19207;-23.482;-46.500;2022-12-07T03:36:25;36.78;;;20.92;;
21014;SDS011;19207;-23.482;-46.500;2022-12-07T03:39:24;38.63;;;21.65;;
21014;SDS011;19207;-23.482;-46.500;2022-12-07T03:42:12;45.42;;;24.00;;
21014;SDS011;19207;-23.482;-46.500;2022-12-07T03:44:58;46.13;;;23.30;;
21014;SDS011;19207;-23.482;-46.500;2022-12-07T03:48:06;41.67;;;22.58;;
21014;SDS011;19207;-23.482;-46.500;2022-12-07T03:53:52;38.70;;;20.45;;
21014;SDS011;19207;-23.482;-46.500;2022-12-07T03:56:41;39.95;;;21.77;;
21014;SDS011;19207;-23.482;-46.500;2022-12-07T03:59:29;41.17;;;21.65;;
21014;SDS011;19207;-23.482;-46.500;2022-12-07T04:02:15;47.33;;;22.70;;
21014;SDS011;19207;-23.482;-46.500;2022-12-07T04:05:02;40.92;;;22.27;;
21014;SDS011;19207;-23.482;-46.500;2022-12-07T04:07:49;41.30;;;21.08;;
21014;SDS011;19207;-23.482;-46.500;2022-12-07T04:10:35;35.97;;;20.70;;
21014;SDS011;19207;-23.482;-46.500;2022-12-07T04:13:22;42.03;;;20.33;;
21014;SDS011;19207;-23.482;-46.500;2022-12-07T04:16:08;35.67;;;19.37;;
21014;SDS011;19207;-23.482;-46.500;2022-12-07T04:18:55;37.80;;;20.62;;
21014;SDS011;19207;-23.482;-46.500;2022-12-07T04:21:42;41.10;;;24.52;;
21014;SDS011;19207;-23.482;-46.500;2022-12-07T04:24:29;43.25;;;23.98;;
21014;SDS011;19207;-23.482;-46.500;2022-12-07T04:27:16;41.67;;;24.45;;
21014;SDS011;19207;-23.482;-46.500;2022-12-07T04:30:04;38.38;;;23.67;;
21014;SDS011;19207;-23.482;-46.500;2022-12-07T04:32:51;47.10;;;23.60;;
21014;SDS011;19207;-23.482;-46.500;2022-12-07T04:35:37;42.22;;;23.27;;
21014;SDS011;19207;-23.482;-46.500;2022-12-07T04:38:24;47.22;;;23.73;;
21014;SDS011;19207;-23.482;-46.500;2022-12-07T04:41:10;39.97;;;22.90;;
21014;SDS011;19207;-23.482;-46.500;2022-12-07T04:43:58;51.00;;;24.73;;
21014;SDS011;19207;-23.482;-46.500;2022-12-07T04:46:44;42.47;;;23.30;;
21014;SDS011;19207;-23.482;-46.500;2022-12-07T04:49:31;54.15;;;24.75;;
21014;SDS011;19207;-23.482;-46.500;2022-12-07T04:52:18;39.00;;;21.67;;
21014;SDS011;19207;-23.482;-46.500;2022-12-07T04:55:04;34.78;;;20.90;;
21014;SDS011;19207;-23.482;-46.500;2022-12-07T04:57:51;44.50;;;21.85;;
21014;SDS011;19207;-23.482;-46.500;2022-12-07T05:00:37;43.03;;;22.42;;
21014;SDS011;19207;-23.482;-46.500;2022-12-07T05:03:24;30.25;;;17.33;;
21014;SDS011;19207;-23.482;-46.500;2022-12-07T05:06:11;13.75;;;10.85;;
21014;SDS011;19207;-23.482;-46.500;2022-12-07T05:08:58;27.42;;;16.12;;
21014;SDS011;19207;-23.482;-46.500;2022-12-07T05:11:45;40.05;;;19.73;;
21014;SDS011;19207;-23.482;-46.500;2022-12-07T05:14:31;30.73;;;18.27;;
21014;SDS011;19207;-23.482;-46.500;2022-12-07T05:17:18;31.83;;;16.30;;
21014;SDS011;19207;-23.482;-46.500;2022-12-07T05:20:05;14.90;;;10.93;;
21014;SDS011;19207;-23.482;-46.500;2022-12-07T05:22:52;21.02;;;13.25;;
21014;SDS011;19207;-23.482;-46.500;2022-12-07T05:25:39;22.30;;;11.85;;
21014;SDS011;19207;-23.482;-46.500;2022-12-07T05:28:25;17.00;;;10.30;;
21014;SDS011;19207;-23.482;-46.500;2022-12-07T05:31:12;10.70;;;9.32;;
21014;SDS011;19207;-23.482;-46.500;2022-12-07T05:33:59;11.80;;;9.05;;
21014;SDS011;19207;-23.482;-46.500;2022-12-07T05:36:45;13.90;;;8.80;;
21014;SDS011;19207;-23.482;-46.500;2022-12-07T05:39:32;13.82;;;8.88;;
21014;SDS011;19207;-23.482;-46.500;2022-12-07T05:42:19;14.73;;;8.35;;
21014;SDS011;19207;-23.482;-46.500;2022-12-07T05:45:06;13.35;;;8.02;;
21014;SDS011;19207;-23.482;-46.500;2022-12-07T05:47:53;8.25;;;7.50;;
21014;SDS011;19207;-23.482;-46.500;2022-12-07T05:50:39;9.30;;;8.23;;
21014;SDS011;19207;-23.482;-46.500;2022-12-07T05:53:27;10.20;;;8.40;;
21014;SDS011;19207;-23.482;-46.500;2022-12-07T05:56:14;13.35;;;8.38;;
21014;SDS011;19207;-23.482;-46.500;2022-12-07T05:59:01;14.27;;;9.80;;
21014;SDS011;19207;-23.482;-46.500;2022-12-07T06:02:07;16.30;;;9.93;;
21014;SDS011;19207;-23.482;-46.500;2022-12-07T06:04:54;13.32;;;9.68;;
21014;SDS011;19207;-23.482;-46.500;2022-12-07T06:07:40;26.67;;;15.75;;
21014;SDS011;19207;-23.482;-46.500;2022-12-07T06:10:27;27.00;;;15.50;;
21014;SDS011;19207;-23.482;-46.500;2022-12-07T06:13:13;21.52;;;13.43;;
21014;SDS011;19207;-23.482;-46.500;2022-12-07T06:16:00;18.45;;;12.73;;
21014;SDS011;19207;-23.482;-46.500;2022-12-07T06:18:47;20.17;;;12.73;;
21014;SDS011;19207;-23.482;-46.500;2022-12-07T06:21:33;15.80;;;12.75;;
21014;SDS011;19207;-23.482;-46.500;2022-12-07T06:24:21;22.00;;;12.88;;
21014;SDS011;19207;-23.482;-46.500;2022-12-07T06:27:08;23.55;;;12.37;;
21014;SDS011;19207;-23.482;-46.500;2022-12-07T06:29:55;17.95;;;12.15;;
21014;SDS011;19207;-23.482;-46.500;2022-12-07T06:32:42;17.17;;;12.10;;
21014;SDS011;19207;-23.482;-46.500;2022-12-07T06:35:29;19.58;;;13.00;;
21014;SDS011;19207;-23.482;-46.500;2022-12-07T06:38:16;27.08;;;13.82;;
21014;SDS011;19207;-23.482;-46.500;2022-12-07T06:41:02;15.27;;;12.20;;
21014;SDS011;19207;-23.482;-46.500;2022-12-07T06:43:49;22.92;;;12.20;;
21014;SDS011;19207;-23.482;-46.500;2022-12-07T06:46:35;19.52;;;12.98;;
21014;SDS011;19207;-23.482;-46.500;2022-12-07T06:49:22;19.87;;;11.93;;
21014;SDS011;19207;-23.482;-46.500;2022-12-07T06:52:09;20.33;;;11.40;;
21014;SDS011;19207;-23.482;-46.500;2022-12-07T06:54:55;18.95;;;11.45;;
21014;SDS011;19207;-23.482;-46.500;2022-12-07T06:57:42;18.95;;;12.85;;
21014;SDS011;19207;-23.482;-46.500;2022-12-07T07:00:29;19.92;;;13.02;;
21014;SDS011;19207;-23.482;-46.500;2022-12-07T07:03:16;17.12;;;11.88;;
21014;SDS011;19207;-23.482;-46.500;2022-12-07T07:06:03;19.15;;;12.13;;
21014;SDS011;19207;-23.482;-46.500;2022-12-07T07:08:49;20.45;;;13.27;;
21014;SDS011;19207;-23.482;-46.500;2022-12-07T07:11:36;23.27;;;15.73;;
21014;SDS011;19207;-23.482;-46.500;2022-12-07T07:14:22;18.42;;;13.55;;
21014;SDS011;19207;-23.482;-46.500;2022-12-07T07:17:09;18.02;;;12.90;;
21014;SDS011;19207;-23.482;-46.500;2022-12-07T07:19:56;18.48;;;12.13;;
21014;SDS011;19207;-23.482;-46.500;2022-12-07T07:22:43;23.60;;;13.18;;
21014;SDS011;19207;-23.482;-46.500;2022-12-07T07:25:29;20.15;;;13.23;;
21014;SDS011;19207;-23.482;-46.500;2022-12-07T07:28:16;17.65;;;11.93;;
21014;SDS011;19207;-23.482;-46.500;2022-12-07T07:31:02;12.98;;;10.70;;
21014;SDS011;19207;-23.482;-46.500;2022-12-07T07:33:49;15.32;;;11.07;;
21014;SDS011;19207;-23.482;-46.500;2022-12-07T07:36:36;19.17;;;11.73;;
21014;SDS011;19207;-23.482;-46.500;2022-12-07T07:39:23;17.95;;;11.63;;
21014;SDS011;19207;-23.482;-46.500;2022-12-07T07:42:09;15.32;;;12.05;;
21014;SDS011;19207;-23.482;-46.500;2022-12-07T07:44:56;26.23;;;13.75;;
21014;SDS011;19207;-23.482;-46.500;2022-12-07T07:47:42;19.85;;;13.07;;
21014;SDS011;19207;-23.482;-46.500;2022-12-07T07:50:29;20.73;;;14.63;;
21014;SDS011;19207;-23.482;-46.500;2022-12-07T07:53:16;17.25;;;12.70;;
21014;SDS011;19207;-23.482;-46.500;2022-12-07T07:56:02;21.85;;;12.88;;
21014;SDS011;19207;-23.482;-46.500;2022-12-07T07:58:53;17.58;;;11.98;;
21014;SDS011;19207;-23.482;-46.500;2022-12-07T08:01:39;17.25;;;12.23;;
21014;SDS011;19207;-23.482;-46.500;2022-12-07T08:04:26;22.80;;;12.43;;
21014;SDS011;19207;-23.482;-46.500;2022-12-07T08:07:13;21.80;;;13.85;;
21014;SDS011;19207;-23.482;-46.500;2022-12-07T08:10:00;18.50;;;13.50;;
21014;SDS011;19207;-23.482;-46.500;2022-12-07T08:12:47;23.23;;;13.07;;
21014;SDS011;19207;-23.482;-46.500;2022-12-07T08:15:52;22.45;;;13.57;;
21014;SDS011;19207;-23.482;-46.500;2022-12-07T08:18:39;27.00;;;14.80;;
21014;SDS011;19207;-23.482;-46.500;2022-12-07T08:21:26;29.95;;;15.07;;
21014;SDS011;19207;-23.482;-46.500;2022-12-07T08:24:12;28.58;;;14.65;;
21014;SDS011;19207;-23.482;-46.500;2022-12-07T08:26:59;24.50;;;14.52;;
21014;SDS011;19207;-23.482;-46.500;2022-12-07T08:29:46;33.17;;;16.05;;
21014;SDS011;19207;-23.482;-46.500;2022-12-07T08:32:33;25.92;;;14.55;;
21014;SDS011;19207;-23.482;-46.500;2022-12-07T08:35:20;27.35;;;14.52;;
21014;SDS011;19207;-23.482;-46.500;2022-12-07T08:38:06;25.95;;;15.05;;
21014;SDS011;19207;-23.482;-46.500;2022-12-07T08:40:54;26.67;;;14.60;;
21014;SDS011;19207;-23.482;-46.500;2022-12-07T08:43:51;27.48;;;13.25;;
21014;SDS011;19207;-23.482;-46.500;2022-12-07T08:46:38;32.30;;;13.45;;
21014;SDS011;19207;-23.482;-46.500;2022-12-07T08:49:27;25.42;;;14.73;;
21014;SDS011;19207;-23.482;-46.500;2022-12-07T08:52:16;29.30;;;14.87;;
21014;SDS011;19207;-23.482;-46.500;2022-12-07T08:55:04;32.70;;;16.77;;
21014;SDS011;19207;-23.482;-46.500;2022-12-07T08:57:54;34.70;;;17.37;;
21014;SDS011;19207;-23.482;-46.500;2022-12-07T09:00:41;38.55;;;18.05;;
21014;SDS011;19207;-23.482;-46.500;2022-12-07T09:03:28;50.95;;;19.67;;
21014;SDS011;19207;-23.482;-46.500;2022-12-07T09:06:14;33.75;;;18.70;;
21014;SDS011;19207;-23.482;-46.500;2022-12-07T09:09:01;35.08;;;17.77;;
21014;SDS011;19207;-23.482;-46.500;2022-12-07T09:11:47;36.65;;;18.08;;
21014;SDS011;19207;-23.482;-46.500;2022-12-07T09:14:34;31.87;;;18.48;;
21014;SDS011;19207;-23.482;-46.500;2022-12-07T09:17:21;42.90;;;19.25;;
21014;SDS011;19207;-23.482;-46.500;2022-12-07T09:20:07;68.22;;;23.20;;
21014;SDS011;19207;-23.482;-46.500;2022-12-07T09:22:54;56.45;;;22.27;;
21014;SDS011;19207;-23.482;-46.500;2022-12-07T09:25:41;48.47;;;21.45;;
21014;SDS011;19207;-23.482;-46.500;2022-12-07T09:28:28;44.13;;;23.10;;
21014;SDS011;19207;-23.482;-46.500;2022-12-07T09:31:14;38.90;;;21.80;;
21014;SDS011;19207;-23.482;-46.500;2022-12-07T09:34:01;50.20;;;24.52;;
21014;SDS011;19207;-23.482;-46.500;2022-12-07T09:36:48;51.00;;;26.08;;
21014;SDS011;19207;-23.482;-46.500;2022-12-07T09:39:37;46.60;;;23.50;;
21014;SDS011;19207;-23.482;-46.500;2022-12-07T09:45:15;46.55;;;25.92;;
21014;SDS011;19207;-23.482;-46.500;2022-12-07T09:48:03;37.97;;;22.17;;
21014;SDS011;19207;-23.482;-46.500;2022-12-07T09:50:49;33.05;;;21.87;;
21014;SDS011;19207;-23.482;-46.500;2022-12-07T09:53:37;38.75;;;22.70;;
21014;SDS011;19207;-23.482;-46.500;2022-12-07T09:56:24;37.92;;;20.00;;
21014;SDS011;19207;-23.482;-46.500;2022-12-07T09:59:17;25.08;;;17.98;;
21014;SDS011;19207;-23.482;-46.500;2022-12-07T10:05:27;31.45;;;16.55;;
21014;SDS011;19207;-23.482;-46.500;2022-12-07T10:08:15;24.70;;;15.90;;
21014;SDS011;19207;-23.482;-46.500;2022-12-07T10:11:02;25.25;;;15.05;;
21014;SDS011;19207;-23.482;-46.500;2022-12-07T10:13:51;23.77;;;14.77;;
21014;SDS011;19207;-23.482;-46.500;2022-12-07T10:16:39;20.55;;;13.23;;
21014;SDS011;19207;-23.482;-46.500;2022-12-07T10:19:30;18.12;;;11.35;;
21014;SDS011;19207;-23.482;-46.500;2022-12-07T10:22:18;16.65;;;12.05;;
21014;SDS011;19207;-23.482;-46.500;2022-12-07T10:25:20;19.00;;;13.25;;
21014;SDS011;19207;-23.482;-46.500;2022-12-07T10:33:49;19.30;;;12.45;;
21014;SDS011;19207;-23.482;-46.500;2022-12-07T10:36:37;17.15;;;12.45;;
21014;SDS011;19207;-23.482;-46.500;2022-12-07T10:39:24;19.33;;;12.32;;
21014;SDS011;19207;-23.482;-46.500;2022-12-07T10:42:30;18.20;;;11.82;;
21014;SDS011;19207;-23.482;-46.500;2022-12-07T10:45:17;16.58;;;11.00;;
21014;SDS011;19207;-23.482;-46.500;2022-12-07T10:56:36;15.13;;;11.52;;
21014;SDS011;19207;-23.482;-46.500;2022-12-07T11:05:30;20.12;;;11.93;;
21014;SDS011;19207;-23.482;-46.500;2022-12-07T11:20:28;20.40;;;12.30;;
21014;SDS011;19207;-23.482;-46.500;2022-12-07T11:23:27;15.35;;;8.60;;
21014;SDS011;19207;-23.482;-46.500;2022-12-07T11:26:41;15.80;;;9.60;;
21014;SDS011;19207;-23.482;-46.500;2022-12-07T11:29:34;14.48;;;10.07;;
21014;SDS011;19207;-23.482;-46.500;2022-12-07T11:41:03;14.55;;;9.88;;
21014;SDS011;19207;-23.482;-46.500;2022-12-07T11:56:11;15.32;;;10.85;;
21014;SDS011;19207;-23.482;-46.500;2022-12-07T11:59:08;16.15;;;10.55;;
21014;SDS011;19207;-23.482;-46.500;2022-12-07T12:01:58;17.40;;;11.52;;
21014;SDS011;19207;-23.482;-46.500;2022-12-07T12:04:56;20.35;;;12.43;;
21014;SDS011;19207;-23.482;-46.500;2022-12-07T12:07:46;18.05;;;12.95;;
21014;SDS011;19207;-23.482;-46.500;2022-12-07T12:24:57;25.73;;;15.90;;
21014;SDS011;19207;-23.482;-46.500;2022-12-07T12:27:44;28.77;;;16.15;;
21014;SDS011;19207;-23.482;-46.500;2022-12-07T12:30:36;26.17;;;15.90;;
21014;SDS011;19207;-23.482;-46.500;2022-12-07T12:33:27;27.42;;;17.12;;
21014;SDS011;19207;-23.482;-46.500;2022-12-07T12:42:00;29.35;;;17.75;;
21014;SDS011;19207;-23.482;-46.500;2022-12-07T12:45:03;29.80;;;16.70;;
21014;SDS011;19207;-23.482;-46.500;2022-12-07T12:47:53;26.52;;;15.40;;
21014;SDS011;19207;-23.482;-46.500;2022-12-07T12:50:40;25.60;;;15.52;;
21014;SDS011;19207;-23.482;-46.500;2022-12-07T12:53:27;28.05;;;15.88;;
21014;SDS011;19207;-23.482;-46.500;2022-12-07T12:59:24;27.50;;;15.75;;
21014;SDS011;19207;-23.482;-46.500;2022-12-07T13:05:23;25.00;;;14.55;;
21014;SDS011;19207;-23.482;-46.500;2022-12-07T13:08:15;26.33;;;15.35;;
21014;SDS011;19207;-23.482;-46.500;2022-12-07T13:11:27;20.83;;;12.52;;
21014;SDS011;19207;-23.482;-46.500;2022-12-07T13:29:19;22.23;;;13.60;;
21014;SDS011;19207;-23.482;-46.500;2022-12-07T13:32:17;17.55;;;10.68;;
21014;SDS011;19207;-23.482;-46.500;2022-12-07T13:38:34;18.87;;;11.00;;
21014;SDS011;19207;-23.482;-46.500;2022-12-07T13:41:25;17.23;;;10.68;;
21014;SDS011;19207;-23.482;-46.500;2022-12-07T13:44:14;18.08;;;11.40;;
21014;SDS011;19207;-23.482;-46.500;2022-12-07T13:47:09;18.27;;;10.75;;
21014;SDS011;19207;-23.482;-46.500;2022-12-07T13:49:56;14.15;;;9.60;;
21014;SDS011;19207;-23.482;-46.500;2022-12-07T13:52:45;19.17;;;11.32;;
21014;SDS011;19207;-23.482;-46.500;2022-12-07T13:55:33;21.67;;;11.12;;
21014;SDS011;19207;-23.482;-46.500;2022-12-07T13:58:21;18.48;;;10.80;;
21014;SDS011;19207;-23.482;-46.500;2022-12-07T14:01:07;18.90;;;10.45;;
21014;SDS011;19207;-23.482;-46.500;2022-12-07T14:03:54;18.48;;;9.95;;
21014;SDS011;19207;-23.482;-46.500;2022-12-07T14:06:50;15.88;;;10.43;;
21014;SDS011;19207;-23.482;-46.500;2022-12-07T14:09:36;18.77;;;11.20;;
21014;SDS011;19207;-23.482;-46.500;2022-12-07T14:12:24;20.55;;;13.18;;
21014;SDS011;19207;-23.482;-46.500;2022-12-07T14:15:21;22.67;;;13.18;;
21014;SDS011;19207;-23.482;-46.500;2022-12-07T14:18:24;25.50;;;13.65;;
21014;SDS011;19207;-23.482;-46.500;2022-12-07T14:24:16;22.65;;;12.32;;
21014;SDS011;19207;-23.482;-46.500;2022-12-07T14:27:02;27.05;;;14.50;;
21014;SDS011;19207;-23.482;-46.500;2022-12-07T14:29:48;34.70;;;16.50;;
21014;SDS011;19207;-23.482;-46.500;2022-12-07T14:32:35;51.60;;;19.02;;
21014;SDS011;19207;-23.482;-46.500;2022-12-07T14:35:21;37.22;;;13.88;;
21014;SDS011;19207;-23.482;-46.500;2022-12-07T14:38:08;29.00;;;12.13;;
21014;SDS011;19207;-23.482;-46.500;2022-12-07T14:40:55;20.02;;;9.55;;
21014;SDS011;19207;-23.482;-46.500;2022-12-07T14:44:11;21.45;;;9.50;;
21014;SDS011;19207;-23.482;-46.500;2022-12-07T14:46:58;21.50;;;10.07;;
21014;SDS011;19207;-23.482;-46.500;2022-12-07T14:49:45;44.40;;;17.17;;
21014;SDS011;19207;-23.482;-46.500;2022-12-07T14:52:32;51.03;;;18.92;;
21014;SDS011;19207;-23.482;-46.500;2022-12-07T14:55:28;49.63;;;18.83;;
21014;SDS011;19207;-23.482;-46.500;2022-12-07T14:58:16;56.97;;;21.20;;
21014;SDS011;19207;-23.482;-46.500;2022-12-07T15:01:02;50.47;;;19.80;;
21014;SDS011;19207;-23.482;-46.500;2022-12-07T15:03:49;53.63;;;20.40;;
21014;SDS011;19207;-23.482;-46.500;2022-12-07T15:06:36;54.40;;;20.48;;
21014;SDS011;19207;-23.482;-46.500;2022-12-07T15:09:22;51.88;;;20.27;;
21014;SDS011;19207;-23.482;-46.500;2022-12-07T15:12:09;37.70;;;17.45;;
21014;SDS011;19207;-23.482;-46.500;2022-12-07T15:14:56;22.83;;;11.93;;
21014;SDS011;19207;-23.482;-46.500;2022-12-07T15:17:43;19.05;;;11.48;;
21014;SDS011;19207;-23.482;-46.500;2022-12-07T15:20:29;18.50;;;11.25;;
21014;SDS011;19207;-23.482;-46.500;2022-12-07T15:23:16;12.27;;;7.97;;
21014;SDS011;19207;-23.482;-46.500;2022-12-07T15:26:02;13.00;;;7.30;;
21014;SDS011;19207;-23.482;-46.500;2022-12-07T15:28:49;9.02;;;6.72;;
21014;SDS011;19207;-23.482;-46.500;2022-12-07T15:31:35;8.57;;;6.68;;
21014;SDS011;19207;-23.482;-46.500;2022-12-07T15:34:25;10.93;;;7.03;;
21014;SDS011;19207;-23.482;-46.500;2022-12-07T15:37:13;10.38;;;6.60;;
21014;SDS011;19207;-23.482;-46.500;2022-12-07T15:39:59;9.27;;;6.22;;
21014;SDS011;19207;-23.482;-46.500;2022-12-07T15:42:46;6.47;;;4.50;;
21014;SDS011;19207;-23.482;-46.500;2022-12-07T15:45:32;10.93;;;10.02;;
21014;SDS011;19207;-23.482;-46.500;2022-12-07T15:48:20;6.85;;;4.78;;
21014;SDS011;19207;-23.482;-46.500;2022-12-07T15:51:07;6.82;;;5.32;;
21014;SDS011;19207;-23.482;-46.500;2022-12-07T15:53:54;6.62;;;4.75;;
21014;SDS011;19207;-23.482;-46.500;2022-12-07T15:56:40;4.82;;;4.30;;
21014;SDS011;19207;-23.482;-46.500;2022-12-07T15:59:27;4.40;;;4.00;;
21014;SDS011;19207;-23.482;-46.500;2022-12-07T16:02:14;4.65;;;3.97;;
21014;SDS011;19207;-23.482;-46.500;2022-12-07T16:05:00;5.87;;;4.57;;
21014;SDS011;19207;-23.482;-46.500;2022-12-07T16:07:46;4.57;;;4.03;;
21014;SDS011;19207;-23.482;-46.500;2022-12-07T16:10:32;5.87;;;4.00;;
21014;SDS011;19207;-23.482;-46.500;2022-12-07T16:13:19;6.43;;;4.40;;
21014;SDS011;19207;-23.482;-46.500;2022-12-07T16:16:07;6.97;;;4.40;;
21014;SDS011;19207;-23.482;-46.500;2022-12-07T16:18:54;7.18;;;6.47;;
21014;SDS011;19207;-23.482;-46.500;2022-12-07T16:21:40;5.12;;;4.62;;
21014;SDS011;19207;-23.482;-46.500;2022-12-07T16:24:27;5.18;;;4.68;;
21014;SDS011;19207;-23.482;-46.500;2022-12-07T16:27:14;5.57;;;4.50;;
21014;SDS011;19207;-23.482;-46.500;2022-12-07T16:30:00;5.20;;;4.70;;
21014;SDS011;19207;-23.482;-46.500;2022-12-07T16:32:48;5.75;;;4.68;;
21014;SDS011;19207;-23.482;-46.500;2022-12-07T16:35:37;5.35;;;3.90;;
21014;SDS011;19207;-23.482;-46.500;2022-12-07T16:38:26;4.75;;;4.25;;
21014;SDS011;19207;-23.482;-46.500;2022-12-07T16:41:12;5.35;;;4.10;;
21014;SDS011;19207;-23.482;-46.500;2022-12-07T16:44:03;4.60;;;4.20;;
21014;SDS011;19207;-23.482;-46.500;2022-12-07T16:46:49;4.43;;;4.03;;
21014;SDS011;19207;-23.482;-46.500;2022-12-07T16:49:36;5.07;;;4.57;;
21014;SDS011;19207;-23.482;-46.500;2022-12-07T16:52:22;4.50;;;4.10;;
21014;SDS011;19207;-23.482;-46.500;2022-12-07T16:55:09;5.68;;;4.32;;
21014;SDS011;19207;-23.482;-46.500;2022-12-07T16:57:55;6.97;;;3.97;;
21014;SDS011;19207;-23.482;-46.500;2022-12-07T17:00:42;7.87;;;4.60;;
21014;SDS011;19207;-23.482;-46.500;2022-12-07T17:03:29;4.32;;;3.83;;
21014;SDS011;19207;-23.482;-46.500;2022-12-07T17:06:16;5.37;;;3.95;;
21014;SDS011;19207;-23.482;-46.500;2022-12-07T17:09:04;4.43;;;3.95;;
21014;SDS011;19207;-23.482;-46.500;2022-12-07T17:11:53;4.00;;;3.60;;
21014;SDS011;19207;-23.482;-46.500;2022-12-07T17:14:40;7.28;;;4.40;;
21014;SDS011;19207;-23.482;-46.500;2022-12-07T17:17:45;4.15;;;3.60;;
21014;SDS011;19207;-23.482;-46.500;2022-12-07T17:20:32;7.53;;;3.95;;
21014;SDS011;19207;-23.482;-46.500;2022-12-07T17:23:19;4.35;;;3.87;;
21014;SDS011;19207;-23.482;-46.500;2022-12-07T17:26:06;7.70;;;4.40;;
21014;SDS011;19207;-23.482;-46.500;2022-12-07T17:28:53;5.47;;;4.35;;
21014;SDS011;19207;-23.482;-46.500;2022-12-07T17:31:39;6.47;;;4.20;;
21014;SDS011;19207;-23.482;-46.500;2022-12-07T17:34:26;5.05;;;3.72;;
21014;SDS011;19207;-23.482;-46.500;2022-12-07T17:37:12;5.05;;;3.70;;
21014;SDS011;19207;-23.482;-46.500;2022-12-07T17:39:59;3.55;;;3.25;;
21014;SDS011;19207;-23.482;-46.500;2022-12-07T17:42:46;4.82;;;3.90;;
21014;SDS011;19207;-23.482;-46.500;2022-12-07T17:45:36;3.90;;;3.60;;
21014;SDS011;19207;-23.482;-46.500;2022-12-07T17:48:22;5.95;;;3.47;;
21014;SDS011;19207;-23.482;-46.500;2022-12-07T17:51:09;4.18;;;3.20;;
21014;SDS011;19207;-23.482;-46.500;2022-12-07T17:54:14;6.43;;;3.50;;
21014;SDS011;19207;-23.482;-46.500;2022-12-07T17:57:01;4.20;;;3.80;;
21014;SDS011;19207;-23.482;-46.500;2022-12-07T17:59:47;7.90;;;4.28;;
21014;SDS011;19207;-23.482;-46.500;2022-12-07T18:02:35;10.15;;;5.85;;
21014;SDS011;19207;-23.482;-46.500;2022-12-07T18:05:21;6.80;;;4.03;;
21014;SDS011;19207;-23.482;-46.500;2022-12-07T18:08:08;6.75;;;4.97;;